sensor_id;sensor_type;location;lat;lon;timestamp;P1;durP1;ratioP1;P2;durP2;ratioP2
5967;SDS011;3010;51.028;4.170;2022-08-16T00:02:23;15.27;;;13.77;;
5967;SDS011;3010;51.028;4.170;2022-08-16T00:04:49;16.10;;;14.70;;
5967;SDS011;3010;51.028;4.170;2022-08-16T00:07:16;14.87;;;13.43;;
5967;SDS011;3010;51.028;4.170;2022-08-16T00:09:44;16.75;;;15.20;;
5967;SDS011;3010;51.028;4.170;2022-08-16T00:12:10;16.57;;;14.47;;
5967;SDS011;3010;51.028;4.170;2022-08-16T00:14:37;15.73;;;14.10;;
5967;SDS011;3010;51.028;4.170;2022-08-16T00:17:04;18.53;;;15.17;;
5967;SDS011;3010;51.028;4.170;2022-08-16T00:19:31;17.70;;;15.50;;
5967;SDS011;3010;51.028;4.170;2022-08-16T00:21:57;18.40;;;15.03;;
5967;SDS011;3010;51.028;4.170;2022-08-16T00:24:24;15.80;;;14.20;;
5967;SDS011;3010;51.028;4.170;2022-08-16T00:26:50;17.30;;;15.53;;
5967;SDS011;3010;51.028;4.170;2022-08-16T00:29:17;17.60;;;14.40;;
5967;SDS011;3010;51.028;4.170;2022-08-16T00:31:44;18.87;;;15.10;;
5967;SDS011;3010;51.028;4.170;2022-08-16T00:34:10;16.57;;;14.90;;
5967;SDS011;3010;51.028;4.170;2022-08-16T00:36:36;17.30;;;15.53;;
5967;SDS011;3010;51.028;4.170;2022-08-16T00:39:03;15.87;;;14.33;;
5967;SDS011;3010;51.028;4.170;2022-08-16T00:41:29;16.87;;;14.83;;
5967;SDS011;3010;51.028;4.170;2022-08-16T00:43:56;16.17;;;14.57;;
5967;SDS011;3010;51.028;4.170;2022-08-16T00:46:33;17.97;;;14.23;;
5967;SDS011;3010;51.028;4.170;2022-08-16T00:48:58;16.37;;;14.53;;
5967;SDS011;3010;51.028;4.170;2022-08-16T00:51:25;21.80;;;15.33;;
5967;SDS011;3010;51.028;4.170;2022-08-16T00:53:52;18.83;;;14.70;;
5967;SDS011;3010;51.028;4.170;2022-08-16T00:56:19;16.00;;;14.43;;
5967;SDS011;3010;51.028;4.170;2022-08-16T00:58:47;19.20;;;15.07;;
5967;SDS011;3010;51.028;4.170;2022-08-16T01:01:14;16.47;;;14.77;;
5967;SDS011;3010;51.028;4.170;2022-08-16T01:03:41;17.65;;;15.75;;
5967;SDS011;3010;51.028;4.170;2022-08-16T01:06:08;16.10;;;14.43;;
5967;SDS011;3010;51.028;4.170;2022-08-16T01:08:34;15.30;;;13.90;;
5967;SDS011;3010;51.028;4.170;2022-08-16T01:11:00;15.27;;;13.47;;
5967;SDS011;3010;51.028;4.170;2022-08-16T01:13:27;14.53;;;13.20;;
5967;SDS011;3010;51.028;4.170;2022-08-16T01:16:00;15.57;;;13.70;;
5967;SDS011;3010;51.028;4.170;2022-08-16T01:18:24;13.73;;;12.33;;
5967;SDS011;3010;51.028;4.170;2022-08-16T01:20:55;14.50;;;12.87;;
5967;SDS011;3010;51.028;4.170;2022-08-16T01:23:35;14.50;;;12.53;;
5967;SDS011;3010;51.028;4.170;2022-08-16T01:25:57;14.27;;;12.63;;
5967;SDS011;3010;51.028;4.170;2022-08-16T01:28:23;13.07;;;11.87;;
5967;SDS011;3010;51.028;4.170;2022-08-16T01:30:51;15.00;;;13.30;;
5967;SDS011;3010;51.028;4.170;2022-08-16T01:33:17;13.40;;;12.03;;
5967;SDS011;3010;51.028;4.170;2022-08-16T01:35:51;14.47;;;12.90;;
5967;SDS011;3010;51.028;4.170;2022-08-16T01:38:29;13.73;;;12.57;;
5967;SDS011;3010;51.028;4.170;2022-08-16T01:40:58;18.03;;;14.10;;
5967;SDS011;3010;51.028;4.170;2022-08-16T01:43:23;15.40;;;13.33;;
5967;SDS011;3010;51.028;4.170;2022-08-16T01:45:54;16.43;;;14.27;;
5967;SDS011;3010;51.028;4.170;2022-08-16T01:48:19;15.37;;;13.97;;
5967;SDS011;3010;51.028;4.170;2022-08-16T01:50:46;14.33;;;13.07;;
5967;SDS011;3010;51.028;4.170;2022-08-16T01:53:12;16.03;;;14.37;;
5967;SDS011;3010;51.028;4.170;2022-08-16T01:55:39;14.70;;;13.27;;
5967;SDS011;3010;51.028;4.170;2022-08-16T01:58:06;16.67;;;14.67;;
5967;SDS011;3010;51.028;4.170;2022-08-16T02:00:32;14.97;;;13.30;;
5967;SDS011;3010;51.028;4.170;2022-08-16T02:02:59;15.97;;;14.57;;
5967;SDS011;3010;51.028;4.170;2022-08-16T02:05:25;17.03;;;15.23;;
5967;SDS011;3010;51.028;4.170;2022-08-16T02:07:52;17.62;;;15.82;;
5967;SDS011;3010;51.028;4.170;2022-08-16T02:10:19;17.80;;;15.67;;
5967;SDS011;3010;51.028;4.170;2022-08-16T02:12:45;17.60;;;14.80;;
5967;SDS011;3010;51.028;4.170;2022-08-16T02:15:12;19.83;;;15.77;;
5967;SDS011;3010;51.028;4.170;2022-08-16T02:17:38;18.52;;;16.90;;
5967;SDS011;3010;51.028;4.170;2022-08-16T02:20:05;15.43;;;14.10;;
5967;SDS011;3010;51.028;4.170;2022-08-16T02:22:32;18.63;;;16.50;;
5967;SDS011;3010;51.028;4.170;2022-08-16T02:24:58;17.07;;;15.57;;
5967;SDS011;3010;51.028;4.170;2022-08-16T02:27:25;17.17;;;15.33;;
5967;SDS011;3010;51.028;4.170;2022-08-16T02:29:51;17.40;;;15.70;;
5967;SDS011;3010;51.028;4.170;2022-08-16T02:32:18;17.77;;;16.08;;
5967;SDS011;3010;51.028;4.170;2022-08-16T02:34:44;17.37;;;15.60;;
5967;SDS011;3010;51.028;4.170;2022-08-16T02:37:11;19.12;;;17.37;;
5967;SDS011;3010;51.028;4.170;2022-08-16T02:39:38;17.23;;;15.53;;
5967;SDS011;3010;51.028;4.170;2022-08-16T02:42:04;16.80;;;15.20;;
5967;SDS011;3010;51.028;4.170;2022-08-16T02:44:31;18.40;;;16.50;;
5967;SDS011;3010;51.028;4.170;2022-08-16T02:46:57;18.07;;;16.00;;
5967;SDS011;3010;51.028;4.170;2022-08-16T02:49:24;17.30;;;15.70;;
5967;SDS011;3010;51.028;4.170;2022-08-16T02:51:51;17.13;;;15.53;;
5967;SDS011;3010;51.028;4.170;2022-08-16T02:54:17;17.40;;;15.57;;
5967;SDS011;3010;51.028;4.170;2022-08-16T02:56:44;17.20;;;15.47;;
5967;SDS011;3010;51.028;4.170;2022-08-16T02:59:10;16.97;;;15.27;;
5967;SDS011;3010;51.028;4.170;2022-08-16T03:01:37;21.93;;;15.93;;
5967;SDS011;3010;51.028;4.170;2022-08-16T03:04:04;17.90;;;15.27;;
5967;SDS011;3010;51.028;4.170;2022-08-16T03:06:30;18.85;;;17.05;;
5967;SDS011;3010;51.028;4.170;2022-08-16T03:08:57;21.13;;;15.10;;
5967;SDS011;3010;51.028;4.170;2022-08-16T03:11:23;18.62;;;16.70;;
5967;SDS011;3010;51.028;4.170;2022-08-16T03:13:51;18.53;;;16.17;;
5967;SDS011;3010;51.028;4.170;2022-08-16T03:16:17;19.27;;;17.35;;
5967;SDS011;3010;51.028;4.170;2022-08-16T03:18:43;17.30;;;15.53;;
5967;SDS011;3010;51.028;4.170;2022-08-16T03:21:10;17.47;;;15.63;;
5967;SDS011;3010;51.028;4.170;2022-08-16T03:23:36;17.33;;;15.50;;
5967;SDS011;3010;51.028;4.170;2022-08-16T03:26:03;19.73;;;17.65;;
5967;SDS011;3010;51.028;4.170;2022-08-16T03:28:30;18.63;;;16.73;;
5967;SDS011;3010;51.028;4.170;2022-08-16T03:30:56;19.20;;;17.02;;
5967;SDS011;3010;51.028;4.170;2022-08-16T03:33:24;18.13;;;16.33;;
5967;SDS011;3010;51.028;4.170;2022-08-16T03:35:51;18.00;;;16.20;;
5967;SDS011;3010;51.028;4.170;2022-08-16T03:38:17;19.30;;;17.00;;
5967;SDS011;3010;51.028;4.170;2022-08-16T03:43:22;20.45;;;18.33;;
5967;SDS011;3010;51.028;4.170;2022-08-16T03:45:48;18.80;;;17.10;;
5967;SDS011;3010;51.028;4.170;2022-08-16T03:48:17;19.07;;;17.20;;
5967;SDS011;3010;51.028;4.170;2022-08-16T03:50:43;18.33;;;16.40;;
5967;SDS011;3010;51.028;4.170;2022-08-16T03:53:10;17.50;;;15.67;;
5967;SDS011;3010;51.028;4.170;2022-08-16T03:55:37;18.50;;;16.50;;
5967;SDS011;3010;51.028;4.170;2022-08-16T03:58:03;18.33;;;16.50;;
5967;SDS011;3010;51.028;4.170;2022-08-16T04:00:30;20.05;;;18.08;;
5967;SDS011;3010;51.028;4.170;2022-08-16T04:02:57;20.83;;;17.10;;
5967;SDS011;3010;51.028;4.170;2022-08-16T04:05:23;20.20;;;17.73;;
5967;SDS011;3010;51.028;4.170;2022-08-16T04:07:50;21.60;;;19.27;;
5967;SDS011;3010;51.028;4.170;2022-08-16T04:10:16;21.60;;;18.73;;
5967;SDS011;3010;51.028;4.170;2022-08-16T04:12:43;21.43;;;17.67;;
5967;SDS011;3010;51.028;4.170;2022-08-16T04:15:11;21.13;;;18.43;;
5967;SDS011;3010;51.028;4.170;2022-08-16T04:17:36;21.43;;;19.20;;
5967;SDS011;3010;51.028;4.170;2022-08-16T04:20:03;21.10;;;19.00;;
5967;SDS011;3010;51.028;4.170;2022-08-16T04:22:29;20.93;;;18.37;;
5967;SDS011;3010;51.028;4.170;2022-08-16T04:24:56;22.97;;;20.40;;
5967;SDS011;3010;51.028;4.170;2022-08-16T04:27:22;22.87;;;20.48;;
5967;SDS011;3010;51.028;4.170;2022-08-16T04:29:49;21.83;;;19.53;;
5967;SDS011;3010;51.028;4.170;2022-08-16T04:32:15;22.42;;;20.35;;
5967;SDS011;3010;51.028;4.170;2022-08-16T04:34:42;21.67;;;19.47;;
5967;SDS011;3010;51.028;4.170;2022-08-16T04:37:09;23.38;;;20.95;;
5967;SDS011;3010;51.028;4.170;2022-08-16T04:39:35;22.17;;;17.83;;
5967;SDS011;3010;51.028;4.170;2022-08-16T04:42:02;24.43;;;18.93;;
5967;SDS011;3010;51.028;4.170;2022-08-16T04:44:28;22.87;;;19.03;;
5967;SDS011;3010;51.028;4.170;2022-08-16T04:46:55;21.00;;;18.97;;
5967;SDS011;3010;51.028;4.170;2022-08-16T04:49:22;21.87;;;19.57;;
5967;SDS011;3010;51.028;4.170;2022-08-16T04:51:48;23.25;;;20.88;;
5967;SDS011;3010;51.028;4.170;2022-08-16T04:54:15;22.50;;;20.10;;
5967;SDS011;3010;51.028;4.170;2022-08-16T04:56:41;22.07;;;19.43;;
5967;SDS011;3010;51.028;4.170;2022-08-16T04:59:08;22.07;;;19.77;;
5967;SDS011;3010;51.028;4.170;2022-08-16T05:01:35;23.53;;;18.83;;
5967;SDS011;3010;51.028;4.170;2022-08-16T05:04:01;21.10;;;18.93;;
5967;SDS011;3010;51.028;4.170;2022-08-16T05:06:28;24.37;;;19.30;;
5967;SDS011;3010;51.028;4.170;2022-08-16T05:08:54;23.90;;;19.67;;
5967;SDS011;3010;51.028;4.170;2022-08-16T05:11:21;22.70;;;20.45;;
5967;SDS011;3010;51.028;4.170;2022-08-16T05:13:48;22.60;;;20.03;;
5967;SDS011;3010;51.028;4.170;2022-08-16T05:16:16;23.58;;;21.15;;
5967;SDS011;3010;51.028;4.170;2022-08-16T05:18:41;22.67;;;20.23;;
5967;SDS011;3010;51.028;4.170;2022-08-16T05:21:07;21.90;;;19.27;;
5967;SDS011;3010;51.028;4.170;2022-08-16T05:23:34;24.13;;;20.70;;
5967;SDS011;3010;51.028;4.170;2022-08-16T05:26:00;21.57;;;19.27;;
5967;SDS011;3010;51.028;4.170;2022-08-16T05:28:27;22.07;;;19.70;;
5967;SDS011;3010;51.028;4.170;2022-08-16T05:30:54;23.67;;;19.92;;
5967;SDS011;3010;51.028;4.170;2022-08-16T05:33:20;22.10;;;19.80;;
5967;SDS011;3010;51.028;4.170;2022-08-16T05:35:47;21.47;;;19.13;;
5967;SDS011;3010;51.028;4.170;2022-08-16T05:38:13;26.63;;;19.00;;
5967;SDS011;3010;51.028;4.170;2022-08-16T05:40:40;20.03;;;18.03;;
5967;SDS011;3010;51.028;4.170;2022-08-16T05:43:07;24.27;;;19.10;;
5967;SDS011;3010;51.028;4.170;2022-08-16T05:45:33;21.23;;;19.13;;
5967;SDS011;3010;51.028;4.170;2022-08-16T05:48:00;25.30;;;18.93;;
5967;SDS011;3010;51.028;4.170;2022-08-16T05:50:26;22.17;;;19.83;;
5967;SDS011;3010;51.028;4.170;2022-08-16T05:52:53;23.97;;;19.37;;
5967;SDS011;3010;51.028;4.170;2022-08-16T05:55:20;28.58;;;21.20;;
5967;SDS011;3010;51.028;4.170;2022-08-16T05:57:46;20.23;;;18.07;;
5967;SDS011;3010;51.028;4.170;2022-08-16T06:00:13;26.93;;;19.00;;
5967;SDS011;3010;51.028;4.170;2022-08-16T06:02:40;27.30;;;18.43;;
5967;SDS011;3010;51.028;4.170;2022-08-16T06:05:06;20.83;;;17.13;;
5967;SDS011;3010;51.028;4.170;2022-08-16T06:07:32;19.30;;;16.67;;
5967;SDS011;3010;51.028;4.170;2022-08-16T06:09:59;20.07;;;17.60;;
5967;SDS011;3010;51.028;4.170;2022-08-16T06:12:26;21.77;;;16.93;;
5967;SDS011;3010;51.028;4.170;2022-08-16T06:14:52;22.10;;;17.10;;
5967;SDS011;3010;51.028;4.170;2022-08-16T06:17:19;19.10;;;17.23;;
5967;SDS011;3010;51.028;4.170;2022-08-16T06:19:45;20.37;;;17.97;;
5967;SDS011;3010;51.028;4.170;2022-08-16T06:22:12;19.63;;;16.93;;
5967;SDS011;3010;51.028;4.170;2022-08-16T06:24:39;22.90;;;17.00;;
5967;SDS011;3010;51.028;4.170;2022-08-16T06:27:05;20.02;;;17.05;;
5967;SDS011;3010;51.028;4.170;2022-08-16T06:29:32;17.97;;;16.17;;
5967;SDS011;3010;51.028;4.170;2022-08-16T06:31:58;19.83;;;16.03;;
5967;SDS011;3010;51.028;4.170;2022-08-16T06:34:25;19.57;;;16.30;;
5967;SDS011;3010;51.028;4.170;2022-08-16T06:36:51;18.77;;;15.95;;
5967;SDS011;3010;51.028;4.170;2022-08-16T06:39:18;19.10;;;17.23;;
5967;SDS011;3010;51.028;4.170;2022-08-16T06:41:45;17.42;;;15.75;;
5967;SDS011;3010;51.028;4.170;2022-08-16T06:44:11;17.67;;;15.67;;
5967;SDS011;3010;51.028;4.170;2022-08-16T06:46:38;17.85;;;15.50;;
5967;SDS011;3010;51.028;4.170;2022-08-16T06:49:06;18.13;;;16.33;;
5967;SDS011;3010;51.028;4.170;2022-08-16T06:51:34;24.07;;;15.33;;
5967;SDS011;3010;51.028;4.170;2022-08-16T06:54:00;17.30;;;15.53;;
5967;SDS011;3010;51.028;4.170;2022-08-16T06:56:27;15.23;;;13.67;;
5967;SDS011;3010;51.028;4.170;2022-08-16T06:58:54;19.95;;;15.32;;
5967;SDS011;3010;51.028;4.170;2022-08-16T07:01:20;17.00;;;14.03;;
5967;SDS011;3010;51.028;4.170;2022-08-16T07:03:47;16.93;;;14.77;;
5967;SDS011;3010;51.028;4.170;2022-08-16T07:06:13;21.13;;;14.40;;
5967;SDS011;3010;51.028;4.170;2022-08-16T07:08:40;17.20;;;14.07;;
5967;SDS011;3010;51.028;4.170;2022-08-16T07:11:07;17.03;;;14.43;;
5967;SDS011;3010;51.028;4.170;2022-08-16T07:13:33;22.43;;;14.90;;
5967;SDS011;3010;51.028;4.170;2022-08-16T07:16:00;15.60;;;13.70;;
5967;SDS011;3010;51.028;4.170;2022-08-16T07:18:26;15.77;;;13.43;;
5967;SDS011;3010;51.028;4.170;2022-08-16T07:20:53;15.13;;;13.13;;
5967;SDS011;3010;51.028;4.170;2022-08-16T07:23:20;16.07;;;12.93;;
5967;SDS011;3010;51.028;4.170;2022-08-16T07:25:46;19.60;;;13.03;;
5967;SDS011;3010;51.028;4.170;2022-08-16T07:28:13;14.67;;;12.40;;
5967;SDS011;3010;51.028;4.170;2022-08-16T07:30:40;15.13;;;13.37;;
5967;SDS011;3010;51.028;4.170;2022-08-16T07:33:06;15.77;;;11.80;;
5967;SDS011;3010;51.028;4.170;2022-08-16T07:35:32;13.63;;;11.47;;
5967;SDS011;3010;51.028;4.170;2022-08-16T07:37:59;12.10;;;10.93;;
5967;SDS011;3010;51.028;4.170;2022-08-16T07:40:26;13.33;;;11.93;;
5967;SDS011;3010;51.028;4.170;2022-08-16T07:42:52;13.73;;;10.90;;
5967;SDS011;3010;51.028;4.170;2022-08-16T07:45:19;15.50;;;10.87;;
5967;SDS011;3010;51.028;4.170;2022-08-16T07:47:45;10.70;;;9.80;;
5967;SDS011;3010;51.028;4.170;2022-08-16T07:50:12;12.80;;;10.13;;
5967;SDS011;3010;51.028;4.170;2022-08-16T07:52:39;10.80;;;9.07;;
5967;SDS011;3010;51.028;4.170;2022-08-16T07:55:05;16.00;;;11.02;;
5967;SDS011;3010;51.028;4.170;2022-08-16T07:57:32;13.73;;;9.90;;
5967;SDS011;3010;51.028;4.170;2022-08-16T07:59:58;10.43;;;9.40;;
5967;SDS011;3010;51.028;4.170;2022-08-16T08:02:28;10.60;;;8.50;;
5967;SDS011;3010;51.028;4.170;2022-08-16T08:04:51;13.50;;;9.40;;
5967;SDS011;3010;51.028;4.170;2022-08-16T08:07:18;9.57;;;8.77;;
5967;SDS011;3010;51.028;4.170;2022-08-16T08:09:45;11.50;;;10.27;;
5967;SDS011;3010;51.028;4.170;2022-08-16T08:12:11;10.30;;;8.73;;
5967;SDS011;3010;51.028;4.170;2022-08-16T08:14:38;12.90;;;8.85;;
5967;SDS011;3010;51.028;4.170;2022-08-16T08:17:04;8.53;;;7.73;;
5967;SDS011;3010;51.028;4.170;2022-08-16T08:19:32;9.90;;;8.90;;
5967;SDS011;3010;51.028;4.170;2022-08-16T08:21:58;9.17;;;8.30;;
5967;SDS011;3010;51.028;4.170;2022-08-16T08:24:24;13.07;;;8.40;;
5967;SDS011;3010;51.028;4.170;2022-08-16T08:26:51;11.40;;;8.02;;
5967;SDS011;3010;51.028;4.170;2022-08-16T08:29:18;11.37;;;7.77;;
5967;SDS011;3010;51.028;4.170;2022-08-16T08:31:44;15.67;;;8.77;;
5967;SDS011;3010;51.028;4.170;2022-08-16T08:34:11;10.83;;;8.60;;
5967;SDS011;3010;51.028;4.170;2022-08-16T08:36:37;8.97;;;8.17;;
5967;SDS011;3010;51.028;4.170;2022-08-16T08:39:04;7.50;;;6.87;;
5967;SDS011;3010;51.028;4.170;2022-08-16T08:41:30;9.57;;;7.85;;
5967;SDS011;3010;51.028;4.170;2022-08-16T08:43:57;7.13;;;6.53;;
5967;SDS011;3010;51.028;4.170;2022-08-16T08:46:24;15.03;;;8.10;;
5967;SDS011;3010;51.028;4.170;2022-08-16T08:48:51;8.30;;;7.63;;
5967;SDS011;3010;51.028;4.170;2022-08-16T08:51:17;12.83;;;7.67;;
5967;SDS011;3010;51.028;4.170;2022-08-16T08:53:44;9.00;;;6.83;;
5967;SDS011;3010;51.028;4.170;2022-08-16T08:56:12;8.60;;;6.93;;
5967;SDS011;3010;51.028;4.170;2022-08-16T08:58:38;8.60;;;6.10;;
5967;SDS011;3010;51.028;4.170;2022-08-16T09:01:05;6.67;;;6.00;;
5967;SDS011;3010;51.028;4.170;2022-08-16T09:03:32;6.83;;;6.33;;
5967;SDS011;3010;51.028;4.170;2022-08-16T09:06:01;5.63;;;5.23;;
5967;SDS011;3010;51.028;4.170;2022-08-16T09:08:27;6.30;;;5.37;;
5967;SDS011;3010;51.028;4.170;2022-08-16T09:10:54;6.55;;;5.05;;
5967;SDS011;3010;51.028;4.170;2022-08-16T09:13:21;5.70;;;5.20;;
5967;SDS011;3010;51.028;4.170;2022-08-16T09:15:47;5.13;;;4.73;;
5967;SDS011;3010;51.028;4.170;2022-08-16T09:18:13;6.13;;;4.60;;
5967;SDS011;3010;51.028;4.170;2022-08-16T09:20:40;3.93;;;3.83;;
5967;SDS011;3010;51.028;4.170;2022-08-16T09:23:06;4.77;;;4.37;;
5967;SDS011;3010;51.028;4.170;2022-08-16T09:25:33;5.00;;;4.70;;
5967;SDS011;3010;51.028;4.170;2022-08-16T09:28:00;4.47;;;4.07;;
5967;SDS011;3010;51.028;4.170;2022-08-16T09:30:26;5.97;;;4.10;;
5967;SDS011;3010;51.028;4.170;2022-08-16T09:32:53;4.10;;;3.90;;
5967;SDS011;3010;51.028;4.170;2022-08-16T09:35:20;5.30;;;4.73;;
5967;SDS011;3010;51.028;4.170;2022-08-16T09:37:46;4.70;;;4.30;;
5967;SDS011;3010;51.028;4.170;2022-08-16T09:40:12;4.73;;;4.27;;
5967;SDS011;3010;51.028;4.170;2022-08-16T09:42:39;4.67;;;4.23;;
5967;SDS011;3010;51.028;4.170;2022-08-16T09:45:06;4.40;;;4.00;;
5967;SDS011;3010;51.028;4.170;2022-08-16T09:47:35;4.20;;;3.80;;
5967;SDS011;3010;51.028;4.170;2022-08-16T09:49:59;4.57;;;3.77;;
5967;SDS011;3010;51.028;4.170;2022-08-16T09:52:25;6.67;;;3.57;;
5967;SDS011;3010;51.028;4.170;2022-08-16T09:54:52;4.27;;;3.70;;
5967;SDS011;3010;51.028;4.170;2022-08-16T09:57:19;3.77;;;3.47;;
5967;SDS011;3010;51.028;4.170;2022-08-16T09:59:45;4.07;;;3.70;;
5967;SDS011;3010;51.028;4.170;2022-08-16T10:02:12;4.73;;;4.37;;
5967;SDS011;3010;51.028;4.170;2022-08-16T10:04:38;6.33;;;3.63;;
5967;SDS011;3010;51.028;4.170;2022-08-16T10:07:05;4.37;;;3.60;;
5967;SDS011;3010;51.028;4.170;2022-08-16T10:09:32;4.60;;;4.20;;
5967;SDS011;3010;51.028;4.170;2022-08-16T10:11:58;4.47;;;4.17;;
5967;SDS011;3010;51.028;4.170;2022-08-16T10:14:43;3.97;;;3.77;;
5967;SDS011;3010;51.028;4.170;2022-08-16T10:17:10;4.90;;;3.92;;
5967;SDS011;3010;51.028;4.170;2022-08-16T10:19:36;5.00;;;3.70;;
5967;SDS011;3010;51.028;4.170;2022-08-16T10:22:03;5.07;;;3.62;;
5967;SDS011;3010;51.028;4.170;2022-08-16T10:24:29;4.00;;;3.60;;
5967;SDS011;3010;51.028;4.170;2022-08-16T10:26:56;4.13;;;3.60;;
5967;SDS011;3010;51.028;4.170;2022-08-16T10:29:23;3.63;;;3.47;;
5967;SDS011;3010;51.028;4.170;2022-08-16T10:31:49;3.90;;;3.45;;
5967;SDS011;3010;51.028;4.170;2022-08-16T10:34:16;5.17;;;3.80;;
5967;SDS011;3010;51.028;4.170;2022-08-16T10:36:42;4.05;;;3.72;;
5967;SDS011;3010;51.028;4.170;2022-08-16T10:39:09;3.63;;;3.43;;
5967;SDS011;3010;51.028;4.170;2022-08-16T10:41:36;3.90;;;3.70;;
5967;SDS011;3010;51.028;4.170;2022-08-16T10:44:02;3.60;;;3.33;;
5967;SDS011;3010;51.028;4.170;2022-08-16T10:46:29;3.70;;;3.50;;
5967;SDS011;3010;51.028;4.170;2022-08-16T10:48:55;3.70;;;3.47;;
5967;SDS011;3010;51.028;4.170;2022-08-16T10:51:22;5.43;;;3.70;;
5967;SDS011;3010;51.028;4.170;2022-08-16T10:53:49;3.53;;;3.33;;
5967;SDS011;3010;51.028;4.170;2022-08-16T10:56:15;3.80;;;3.60;;
5967;SDS011;3010;51.028;4.170;2022-08-16T10:58:42;4.57;;;4.20;;
5967;SDS011;3010;51.028;4.170;2022-08-16T11:01:09;4.27;;;3.83;;
5967;SDS011;3010;51.028;4.170;2022-08-16T11:03:35;4.53;;;4.13;;
5967;SDS011;3010;51.028;4.170;2022-08-16T11:06:02;4.45;;;4.03;;
5967;SDS011;3010;51.028;4.170;2022-08-16T11:08:28;4.17;;;4.00;;
5967;SDS011;3010;51.028;4.170;2022-08-16T11:10:55;4.22;;;4.00;;
5967;SDS011;3010;51.028;4.170;2022-08-16T11:13:22;6.17;;;4.37;;
5967;SDS011;3010;51.028;4.170;2022-08-16T11:15:48;3.80;;;3.60;;
5967;SDS011;3010;51.028;4.170;2022-08-16T11:18:14;4.82;;;4.53;;
5967;SDS011;3010;51.028;4.170;2022-08-16T11:20:41;4.20;;;3.97;;
5967;SDS011;3010;51.028;4.170;2022-08-16T11:23:08;5.37;;;4.87;;
5967;SDS011;3010;51.028;4.170;2022-08-16T11:25:34;4.63;;;4.33;;
5967;SDS011;3010;51.028;4.170;2022-08-16T11:28:01;4.57;;;4.27;;
5967;SDS011;3010;51.028;4.170;2022-08-16T11:30:28;4.50;;;4.10;;
5967;SDS011;3010;51.028;4.170;2022-08-16T11:32:54;4.10;;;3.80;;
5967;SDS011;3010;51.028;4.170;2022-08-16T11:35:25;6.07;;;4.30;;
5967;SDS011;3010;51.028;4.170;2022-08-16T11:37:48;4.20;;;3.90;;
5967;SDS011;3010;51.028;4.170;2022-08-16T11:40:14;6.33;;;3.90;;
5967;SDS011;3010;51.028;4.170;2022-08-16T11:42:40;4.87;;;4.67;;
5967;SDS011;3010;51.028;4.170;2022-08-16T11:45:07;5.87;;;4.47;;
5967;SDS011;3010;51.028;4.170;2022-08-16T11:47:33;4.47;;;4.10;;
5967;SDS011;3010;51.028;4.170;2022-08-16T11:50:00;4.80;;;4.32;;
5967;SDS011;3010;51.028;4.170;2022-08-16T11:52:27;9.73;;;4.30;;
5967;SDS011;3010;51.028;4.170;2022-08-16T11:54:53;4.45;;;4.15;;
5967;SDS011;3010;51.028;4.170;2022-08-16T11:57:20;7.93;;;4.35;;
5967;SDS011;3010;51.028;4.170;2022-08-16T11:59:46;5.20;;;3.90;;
5967;SDS011;3010;51.028;4.170;2022-08-16T12:02:13;4.30;;;4.00;;
5967;SDS011;3010;51.028;4.170;2022-08-16T12:04:39;4.53;;;4.12;;
5967;SDS011;3010;51.028;4.170;2022-08-16T12:07:06;3.60;;;3.33;;
5967;SDS011;3010;51.028;4.170;2022-08-16T12:09:33;4.03;;;3.60;;
5967;SDS011;3010;51.028;4.170;2022-08-16T12:11:59;3.97;;;3.77;;
5967;SDS011;3010;51.028;4.170;2022-08-16T12:14:26;3.35;;;3.15;;
5967;SDS011;3010;51.028;4.170;2022-08-16T12:16:52;4.20;;;3.53;;
5967;SDS011;3010;51.028;4.170;2022-08-16T12:19:19;4.03;;;3.83;;
5967;SDS011;3010;51.028;4.170;2022-08-16T12:21:46;3.80;;;3.40;;
5967;SDS011;3010;51.028;4.170;2022-08-16T12:24:12;3.70;;;3.50;;
5967;SDS011;3010;51.028;4.170;2022-08-16T12:26:39;3.47;;;3.37;;
5967;SDS011;3010;51.028;4.170;2022-08-16T12:29:05;3.57;;;3.30;;
5967;SDS011;3010;51.028;4.170;2022-08-16T12:31:32;4.27;;;3.53;;
5967;SDS011;3010;51.028;4.170;2022-08-16T12:33:58;3.60;;;3.15;;
5967;SDS011;3010;51.028;4.170;2022-08-16T12:36:25;3.13;;;3.00;;
5967;SDS011;3010;51.028;4.170;2022-08-16T12:38:52;4.57;;;3.33;;
5967;SDS011;3010;51.028;4.170;2022-08-16T12:41:18;5.57;;;3.10;;
5967;SDS011;3010;51.028;4.170;2022-08-16T12:43:45;3.57;;;3.20;;
5967;SDS011;3010;51.028;4.170;2022-08-16T12:46:11;3.60;;;3.27;;
5967;SDS011;3010;51.028;4.170;2022-08-16T12:48:38;3.30;;;3.20;;
5967;SDS011;3010;51.028;4.170;2022-08-16T12:51:25;4.17;;;3.47;;
5967;SDS011;3010;51.028;4.170;2022-08-16T12:53:53;3.80;;;3.50;;
5967;SDS011;3010;51.028;4.170;2022-08-16T12:56:20;3.57;;;3.47;;
5967;SDS011;3010;51.028;4.170;2022-08-16T12:58:45;3.93;;;3.80;;
5967;SDS011;3010;51.028;4.170;2022-08-16T13:01:12;3.63;;;3.30;;
5967;SDS011;3010;51.028;4.170;2022-08-16T13:03:39;3.60;;;3.30;;
5967;SDS011;3010;51.028;4.170;2022-08-16T13:06:05;6.40;;;3.20;;
5967;SDS011;3010;51.028;4.170;2022-08-16T13:08:32;3.67;;;3.47;;
5967;SDS011;3010;51.028;4.170;2022-08-16T13:10:59;4.13;;;3.70;;
5967;SDS011;3010;51.028;4.170;2022-08-16T13:13:25;3.60;;;3.50;;
5967;SDS011;3010;51.028;4.170;2022-08-16T13:15:53;4.43;;;3.63;;
5967;SDS011;3010;51.028;4.170;2022-08-16T13:18:21;4.23;;;3.60;;
5967;SDS011;3010;51.028;4.170;2022-08-16T13:20:48;3.73;;;3.30;;
5967;SDS011;3010;51.028;4.170;2022-08-16T13:23:14;3.83;;;3.50;;
5967;SDS011;3010;51.028;4.170;2022-08-16T13:25:42;3.53;;;3.30;;
5967;SDS011;3010;51.028;4.170;2022-08-16T13:28:08;8.10;;;3.13;;
5967;SDS011;3010;51.028;4.170;2022-08-16T13:30:39;5.67;;;4.00;;
5967;SDS011;3010;51.028;4.170;2022-08-16T13:33:03;4.03;;;3.40;;
5967;SDS011;3010;51.028;4.170;2022-08-16T13:35:30;4.87;;;4.03;;
5967;SDS011;3010;51.028;4.170;2022-08-16T13:37:57;6.83;;;3.60;;
5967;SDS011;3010;51.028;4.170;2022-08-16T13:40:23;4.57;;;3.70;;
5967;SDS011;3010;51.028;4.170;2022-08-16T13:42:53;4.70;;;3.60;;
5967;SDS011;3010;51.028;4.170;2022-08-16T13:45:19;4.60;;;3.87;;
5967;SDS011;3010;51.028;4.170;2022-08-16T13:47:46;4.20;;;3.80;;
5967;SDS011;3010;51.028;4.170;2022-08-16T13:50:12;4.10;;;3.70;;
5967;SDS011;3010;51.028;4.170;2022-08-16T13:52:39;4.10;;;3.70;;
5967;SDS011;3010;51.028;4.170;2022-08-16T13:55:07;4.10;;;3.77;;
5967;SDS011;3010;51.028;4.170;2022-08-16T13:57:34;3.93;;;3.70;;
5967;SDS011;3010;51.028;4.170;2022-08-16T14:00:00;4.27;;;3.30;;
5967;SDS011;3010;51.028;4.170;2022-08-16T14:02:27;3.33;;;3.13;;
5967;SDS011;3010;51.028;4.170;2022-08-16T14:04:53;4.10;;;3.67;;
5967;SDS011;3010;51.028;4.170;2022-08-16T14:07:20;3.43;;;3.33;;
5967;SDS011;3010;51.028;4.170;2022-08-16T14:09:46;3.57;;;3.40;;
5967;SDS011;3010;51.028;4.170;2022-08-16T14:12:18;3.60;;;3.40;;
5967;SDS011;3010;51.028;4.170;2022-08-16T14:14:49;6.73;;;3.70;;
5967;SDS011;3010;51.028;4.170;2022-08-16T14:17:16;4.28;;;3.40;;
5967;SDS011;3010;51.028;4.170;2022-08-16T14:19:42;4.05;;;3.80;;
5967;SDS011;3010;51.028;4.170;2022-08-16T14:22:08;3.70;;;3.50;;
5967;SDS011;3010;51.028;4.170;2022-08-16T14:24:35;5.57;;;3.83;;
5967;SDS011;3010;51.028;4.170;2022-08-16T14:27:02;4.33;;;3.93;;
5967;SDS011;3010;51.028;4.170;2022-08-16T14:29:28;3.80;;;3.60;;
5967;SDS011;3010;51.028;4.170;2022-08-16T14:31:56;4.10;;;3.70;;
5967;SDS011;3010;51.028;4.170;2022-08-16T14:34:21;4.23;;;4.00;;
5967;SDS011;3010;51.028;4.170;2022-08-16T14:36:48;4.17;;;3.73;;
5967;SDS011;3010;51.028;4.170;2022-08-16T14:39:14;4.20;;;3.90;;
5967;SDS011;3010;51.028;4.170;2022-08-16T14:41:41;5.37;;;4.03;;
5967;SDS011;3010;51.028;4.170;2022-08-16T14:44:08;4.85;;;4.00;;
5967;SDS011;3010;51.028;4.170;2022-08-16T14:46:34;3.87;;;3.70;;
5967;SDS011;3010;51.028;4.170;2022-08-16T14:49:01;4.13;;;3.83;;
5967;SDS011;3010;51.028;4.170;2022-08-16T14:51:27;5.97;;;3.97;;
5967;SDS011;3010;51.028;4.170;2022-08-16T14:53:54;7.30;;;3.87;;
5967;SDS011;3010;51.028;4.170;2022-08-16T14:56:21;3.73;;;3.43;;
5967;SDS011;3010;51.028;4.170;2022-08-16T14:58:47;6.23;;;3.80;;
5967;SDS011;3010;51.028;4.170;2022-08-16T15:01:14;5.63;;;3.40;;